Time;durP1;ratioP1;P1;durP2;ratioP2;P2;SDS_P1;SDS_P2;PMS_P1;PMS_P2;Temp;Humidity;BMP_temperature;BMP_pressure;BME280_temperature;BME280_humidity;BME280_pressure;Samples;Min_cycle;Max_cycle;Signal;HPM_P1;HPM_P2
2022/07/09 00:01:01;;;;;;;4.83;2.80;;;;;;;13.34;100.00;97408.88;5024645;28;20446;-73
2022/07/09 00:03:28;;;;;;;3.33;3.13;;;;;;;13.45;100.00;97409.31;5043989;28;20436;-72
2022/07/09 00:05:55;;;;;;;4.53;3.30;;;;;;;13.36;100.00;97409.34;5033643;28;20445;-72
2022/07/09 00:08:22;;;;;;;5.43;2.40;;;;;;;12.84;100.00;97374.91;5051498;28;20504;-73
2022/07/09 00:10:49;;;;;;;4.10;2.50;;;;;;;12.70;100.00;97406.94;5033662;28;20448;-72
2022/07/09 00:13:15;;;;;;;5.20;3.17;;;;;;;12.47;100.00;97380.84;5033791;28;20978;-72
2022/07/09 00:15:42;;;;;;;3.47;2.70;;;;;;;12.50;100.00;97383.66;5050349;28;20430;-72
2022/07/09 00:18:09;;;;;;;6.43;3.20;;;;;;;12.30;100.00;97378.97;5033651;28;20539;-72
2022/07/09 00:20:36;;;;;;;7.23;2.70;;;;;;;12.38;100.00;97405.50;5033587;28;20440;-72
2022/07/09 00:23:03;;;;;;;5.03;2.80;;;;;;;12.01;100.00;97359.13;5033422;28;20440;-72
2022/07/09 00:25:30;;;;;;;4.00;2.80;;;;;;;12.36;100.00;97401.59;5033563;28;20461;-72
2022/07/09 00:27:56;;;;;;;3.83;3.10;;;;;;;12.12;100.00;97386.91;5033251;28;20516;-72
2022/07/09 00:30:23;;;;;;;2.93;2.73;;;;;;;12.17;100.00;97404.53;5033612;28;20437;-72
2022/07/09 00:32:50;;;;;;;5.03;3.40;;;;;;;12.27;100.00;97406.88;5033633;28;20435;-72
2022/07/09 00:35:17;;;;;;;7.27;3.60;;;;;;;12.28;100.00;97397.06;5033566;28;20425;-72
2022/07/09 00:37:44;;;;;;;3.40;2.60;;;;;;;12.14;100.00;97374.09;5032111;28;20453;-72
2022/07/09 00:40:11;;;;;;;6.27;3.10;;;;;;;12.18;100.00;97368.97;5047355;28;20845;-72
2022/07/09 00:42:37;;;;;;;4.90;2.83;;;;;;;12.32;100.00;97388.19;5049807;28;20494;-72
2022/07/09 00:45:05;;;;;;;3.37;3.07;;;;;;;12.16;100.00;97376.47;5043986;28;20458;-72
2022/07/09 00:47:32;;;;;;;3.10;2.90;;;;;;;12.08;100.00;97348.06;5033079;28;20469;-72
2022/07/09 00:49:59;;;;;;;3.40;3.10;;;;;;;12.17;100.00;97353.38;5016819;28;20491;-72
2022/07/09 00:52:27;;;;;;;3.80;3.60;;;;;;;12.27;100.00;97382.22;5066365;28;20460;-72
2022/07/09 00:54:54;;;;;;;2.90;2.60;;;;;;;12.02;100.00;97341.34;5050933;28;20433;-72
2022/07/09 00:57:22;;;;;;;3.80;3.50;;;;;;;12.13;100.00;97388.44;5033192;28;20501;-72
2022/07/09 00:59:49;;;;;;;3.90;3.00;;;;;;;11.80;100.00;97348.31;5033139;28;20524;-72
2022/07/09 01:02:18;;;;;;;4.80;3.10;;;;;;;12.21;100.00;97378.97;5016524;28;21003;-72
2022/07/09 01:04:45;;;;;;;3.27;2.97;;;;;;;11.99;100.00;97356.00;5033011;28;20503;-72
2022/07/09 01:07:12;;;;;;;3.85;3.20;;;;;;;11.94;100.00;97373.94;5032912;28;20485;-72
2022/07/09 01:09:39;;;;;;;5.50;3.43;;;;;;;11.64;100.00;97335.81;5033132;28;20464;-72
2022/07/09 01:12:07;;;;;;;3.40;3.10;;;;;;;11.58;100.00;97356.34;5033095;28;20499;-72
2022/07/09 01:14:34;;;;;;;3.93;3.53;;;;;;;11.66;100.00;97368.84;5033397;28;20491;-73
2022/07/09 01:17:03;;;;;;;5.53;3.30;;;;;;;11.83;100.00;97373.44;5033066;28;20469;-72
2022/07/09 01:19:32;;;;;;;3.40;3.20;;;;;;;11.76;100.00;97368.56;5027433;28;20441;-73
2022/07/09 01:21:59;;;;;;;3.17;2.93;;;;;;;11.88;100.00;97372.50;5055147;28;20428;-73
2022/07/09 01:24:32;;;;;;;4.90;3.33;;;;;;;11.94;100.00;97371.28;5038142;28;20829;-73
2022/07/09 01:26:59;;;;;;;5.60;3.20;;;;;;;12.04;100.00;97373.66;5037028;28;20461;-73
2022/07/09 01:29:26;;;;;;;3.97;3.30;;;;;;;11.35;100.00;97371.53;5053347;28;20500;-72
2022/07/09 01:31:53;;;;;;;3.60;3.27;;;;;;;11.27;100.00;97364.31;5036906;28;20441;-73
2022/07/09 01:34:19;;;;;;;3.93;3.47;;;;;;;11.50;100.00;97352.59;5037024;28;20470;-73
2022/07/09 01:36:46;;;;;;;5.97;4.33;;;;;;;11.65;100.00;97377.88;5037263;28;20788;-73
2022/07/09 01:39:13;;;;;;;6.73;2.73;;;;;;;11.65;100.00;97337.34;5063792;28;20508;-73
2022/07/09 01:41:40;;;;;;;11.47;4.07;;;;;;;11.88;100.00;97373.28;5055062;28;20459;-72
2022/07/09 01:44:07;;;;;;;3.77;3.47;;;;;;;11.82;100.00;97367.34;5036933;28;20456;-73
2022/07/09 01:46:35;;;;;;;3.80;2.60;;;;;;;11.54;100.00;97334.97;5033704;28;20845;-73
2022/07/09 01:49:03;;;;;;;6.53;3.20;;;;;;;11.35;100.00;97315.94;5018413;28;20524;-73
2022/07/09 01:51:34;;;;;;;11.47;3.10;;;;;;;11.49;100.00;97331.69;5036894;28;20441;-73
2022/07/09 01:54:02;;;;;;;4.50;3.03;;;;;;;11.51;100.00;97345.41;5036980;28;20425;-72
2022/07/09 01:56:29;;;;;;;3.10;2.80;;;;;;;10.99;100.00;97292.25;5054560;28;20428;-73
2022/07/09 01:58:55;;;;;;;3.20;2.70;;;;;;;11.27;100.00;97337.06;5036718;28;20484;-73
2022/07/09 02:01:22;;;;;;;3.40;3.10;;;;;;;11.19;100.00;97320.03;5036824;28;20468;-73
2022/07/09 02:03:49;;;;;;;6.10;3.40;;;;;;;11.31;100.00;97332.72;5036777;28;20805;-73
2022/07/09 02:06:19;;;;;;;5.73;3.60;;;;;;;11.23;100.00;97305.91;5054315;28;20483;-73
2022/07/09 02:08:45;;;;;;;4.23;3.87;;;;;;;11.24;100.00;97296.88;5036335;28;20460;-73
2022/07/09 02:11:12;;;;;;;12.57;3.90;;;;;;;11.19;100.00;97282.97;5054671;28;20991;-73
2022/07/09 02:13:39;;;;;;;3.77;3.50;;;;;;;11.46;100.00;97305.81;5036494;28;20479;-73
2022/07/09 02:16:06;;;;;;;3.67;3.37;;;;;;;11.49;100.00;97313.16;5016895;28;20469;-73
2022/07/09 02:18:33;;;;;;;10.37;3.47;;;;;;;11.57;100.00;97325.63;5016999;28;20453;-73
2022/07/09 02:21:00;;;;;;;6.63;3.90;;;;;;;11.00;100.00;97282.44;5036624;28;20504;-73
2022/07/09 02:23:26;;;;;;;3.40;2.97;;;;;;;10.46;100.00;97287.75;5019452;28;20846;-72
2022/07/09 02:25:53;;;;;;;4.10;3.03;;;;;;;10.76;100.00;97322.47;5036223;28;20465;-73
2022/07/09 02:28:20;;;;;;;4.63;4.10;;;;;;;11.07;100.00;97325.13;5035782;28;20520;-73
2022/07/09 02:30:47;;;;;;;6.10;3.50;;;;;;;10.82;100.00;97282.38;5054075;28;20440;-73
2022/07/09 02:33:14;;;;;;;4.80;3.73;;;;;;;11.18;100.00;97319.25;5036402;28;20464;-72
2022/07/09 02:35:40;;;;;;;3.63;3.33;;;;;;;11.05;100.00;97320.13;5036094;28;20480;-73
2022/07/09 02:38:07;;;;;;;4.37;3.23;;;;;;;10.87;100.00;97292.81;5035837;28;20445;-72
2022/07/09 02:40:34;;;;;;;4.00;3.30;;;;;;;11.19;100.00;97314.75;5019216;28;20500;-73
2022/07/09 02:43:01;;;;;;;6.17;3.00;;;;;;;11.17;100.00;97306.34;5035838;28;20484;-73
2022/07/09 02:45:27;;;;;;;4.63;2.90;;;;;;;11.32;100.00;97315.72;5053630;28;20467;-73
2022/07/09 02:47:54;;;;;;;3.33;3.03;;;;;;;10.97;100.00;97270.63;5019079;28;20587;-73
2022/07/09 02:50:21;;;;;;;3.70;2.77;;;;;;;11.18;100.00;97321.13;5036078;28;20488;-73
2022/07/09 02:52:48;;;;;;;5.67;3.00;;;;;;;11.20;100.00;97318.97;5053402;28;20461;-72
2022/07/09 02:55:14;;;;;;;2.67;2.57;;;;;;;11.26;100.00;97323.03;5053358;28;20425;-72
2022/07/09 02:57:41;;;;;;;2.60;2.40;;;;;;;11.20;100.00;97319.72;5035552;28;20457;-73
2022/07/09 03:00:08;;;;;;;4.30;3.40;;;;;;;10.93;100.00;97327.84;5053535;28;20429;-72
2022/07/09 03:02:35;;;;;;;3.57;2.77;;;;;;;10.50;100.00;97327.59;5035497;28;20532;-73
2022/07/09 03:05:02;;;;;;;3.40;3.10;;;;;;;10.52;100.00;97302.41;5035621;28;20429;-73
2022/07/09 03:07:29;;;;;;;3.57;3.27;;;;;;;10.69;100.00;97320.28;5018717;28;20492;-73
2022/07/09 03:09:56;;;;;;;4.10;3.70;;;;;;;10.75;100.00;97318.28;5035090;28;20892;-73
2022/07/09 03:12:22;;;;;;;4.13;3.70;;;;;;;10.62;100.00;97315.38;5018747;28;20938;-73
2022/07/09 03:14:49;;;;;;;4.80;3.13;;;;;;;10.31;100.00;97280.19;5035296;28;20945;-73
2022/07/09 03:17:16;;;;;;;4.53;3.70;;;;;;;10.31;100.00;97286.25;5051339;28;20504;-73
2022/07/09 03:19:43;;;;;;;3.23;2.93;;;;;;;10.20;100.00;97260.34;5034901;28;20503;-73
2022/07/09 03:22:09;;;;;;;5.13;3.43;;;;;;;10.62;100.00;97304.03;5034823;28;20543;-73
2022/07/09 03:24:36;;;;;;;3.63;3.33;;;;;;;10.62;100.00;97299.53;5035181;28;20858;-73
2022/07/09 03:27:03;;;;;;;3.67;3.47;;;;;;;10.34;100.00;97287.50;5035131;28;20519;-72
2022/07/09 03:29:29;;;;;;;6.63;3.57;;;;;;;10.62;100.00;97306.69;5034889;28;20571;-72
2022/07/09 03:31:56;;;;;;;3.07;2.87;;;;;;;10.38;100.00;97287.69;5034680;28;20496;-73
2022/07/09 03:34:23;;;;;;;3.13;2.93;;;;;;;10.65;100.00;97306.06;5034894;28;20445;-73
2022/07/09 03:36:49;;;;;;;3.60;3.30;;;;;;;10.63;100.00;97305.59;5034655;28;20489;-72
2022/07/09 03:39:16;;;;;;;3.43;2.80;;;;;;;10.41;100.00;97306.38;5034670;28;20433;-72
2022/07/09 03:41:43;;;;;;;3.57;3.13;;;;;;;10.51;100.00;97308.78;5017581;28;20483;-72
2022/07/09 03:44:09;;;;;;;3.60;3.30;;;;;;;10.27;100.00;97287.91;5052838;28;20453;-72
2022/07/09 03:46:36;;;;;;;3.27;3.00;;;;;;;10.38;100.00;97312.25;5022027;28;20762;-73
2022/07/09 03:49:03;;;;;;;2.90;2.70;;;;;;;10.49;100.00;97313.59;5052615;28;20518;-72
2022/07/09 03:51:30;;;;;;;7.00;3.43;;;;;;;10.10;100.00;97285.13;5052715;28;20457;-73
2022/07/09 03:53:56;;;;;;;6.70;3.63;;;;;;;10.45;100.00;97312.63;5017977;28;20433;-73
2022/07/09 03:56:23;;;;;;;3.00;2.80;;;;;;;10.45;100.00;97310.00;5052229;28;20839;-72
2022/07/09 03:58:50;;;;;;;3.77;3.37;;;;;;;10.32;100.00;97321.41;5034575;28;20450;-73
2022/07/09 04:01:17;;;;;;;4.70;3.73;;;;;;;10.22;100.00;97308.41;5034403;28;20868;-73
2022/07/09 04:03:44;;;;;;;4.80;3.20;;;;;;;10.52;100.00;97301.63;5034461;28;20524;-73
2022/07/09 04:06:12;;;;;;;4.77;2.90;;;;;;;10.55;100.00;97288.59;5034189;28;20434;-73
2022/07/09 04:08:38;;;;;;;8.03;3.73;;;;;;;10.48;100.00;97308.59;5052092;28;20465;-72
2022/07/09 04:11:05;;;;;;;5.10;3.70;;;;;;;10.64;100.00;97310.56;5050936;28;21056;-73
2022/07/09 04:13:35;;;;;;;4.00;3.60;;;;;;;10.81;100.00;97317.81;5034755;28;20493;-73
2022/07/09 04:16:02;;;;;;;5.60;4.97;;;;;;;10.81;100.00;97325.75;5034518;28;20429;-73
2022/07/09 04:18:29;;;;;;;3.23;2.90;;;;;;;10.95;100.00;97320.38;5034166;28;20945;-73
2022/07/09 04:20:57;;;;;;;5.87;4.00;;;;;;;10.93;100.00;97296.09;5033970;28;20437;-73
2022/07/09 04:23:23;;;;;;;4.50;2.90;;;;;;;11.21;100.00;97317.88;5051832;28;21036;-73
2022/07/09 04:25:50;;;;;;;4.07;3.77;;;;;;;10.90;100.00;97289.56;5017605;28;20870;-73
2022/07/09 04:28:18;;;;;;;6.17;3.90;;;;;;;10.78;100.00;97297.28;5033706;28;21000;-72
2022/07/09 04:30:46;;;;;;;4.00;3.57;;;;;;;10.50;100.00;97294.00;5050859;28;20437;-73
2022/07/09 04:33:13;;;;;;;3.40;2.60;;;;;;;10.99;100.00;97305.50;5034580;28;20436;-73
2022/07/09 04:35:40;;;;;;;4.80;4.30;;;;;;;11.04;100.00;97283.41;5033813;28;20437;-72
2022/07/09 04:38:06;;;;;;;4.70;3.83;;;;;;;11.05;100.00;97293.66;5051654;28;20445;-73
2022/07/09 04:40:33;;;;;;;6.40;3.57;;;;;;;11.57;100.00;97320.34;5050975;28;20442;-73
2022/07/09 04:43:00;;;;;;;5.37;4.07;;;;;;;11.48;100.00;97271.84;5017805;28;20963;-73
2022/07/09 04:45:29;;;;;;;4.50;3.60;;;;;;;11.87;100.00;97313.41;5051709;28;20433;-73
2022/07/09 04:47:59;;;;;;;4.30;3.20;;;;;;;11.92;100.00;97320.47;5017600;28;20515;-73
2022/07/09 04:50:27;;;;;;;3.63;3.07;;;;;;;11.55;100.00;97298.69;5050503;28;21154;-73
2022/07/09 04:52:54;;;;;;;3.33;3.10;;;;;;;11.62;100.00;97311.47;5016834;28;20531;-73
2022/07/09 04:55:21;;;;;;;4.10;3.30;;;;;;;11.89;100.00;97313.91;5033983;28;20429;-74
2022/07/09 04:57:48;;;;;;;5.10;3.60;;;;;;;11.95;100.00;97325.13;5033979;28;20485;-73
2022/07/09 05:00:15;;;;;;;6.37;3.03;;;;;;;11.96;100.00;97316.88;5051670;28;20425;-73
2022/07/09 05:02:44;;;;;;;3.63;3.33;;;;;;;11.98;100.00;97312.03;5050327;28;20437;-73
2022/07/09 05:05:11;;;;;;;3.17;2.90;;;;;;;11.96;100.00;97313.44;5017904;28;20494;-73
2022/07/09 05:07:38;;;;;;;2.90;2.70;;;;;;;11.96;100.00;97316.88;5033841;28;20529;-73
2022/07/09 05:10:05;;;;;;;4.30;3.73;;;;;;;12.08;100.00;97306.44;5033946;28;20489;-74
2022/07/09 05:12:32;;;;;;;3.60;3.30;;;;;;;12.18;100.00;97310.66;5051990;28;20430;-73
2022/07/09 05:14:59;;;;;;;3.87;2.87;;;;;;;11.91;100.00;97282.56;5033875;28;20421;-73
2022/07/09 05:17:25;;;;;;;5.00;3.80;;;;;;;12.10;100.00;97308.78;5034681;28;20460;-73
2022/07/09 05:19:52;;;;;;;3.47;3.20;;;;;;;12.34;100.00;97284.44;5035215;28;20808;-73
2022/07/09 05:22:19;;;;;;;4.70;4.23;;;;;;;12.57;100.00;97312.34;5052896;28;20461;-73
2022/07/09 05:24:45;;;;;;;4.77;3.77;;;;;;;12.64;100.00;97309.97;5035014;28;20940;-73
2022/07/09 05:27:12;;;;;;;4.20;3.80;;;;;;;12.94;100.00;97312.72;5018398;28;21010;-73
2022/07/09 05:29:39;;;;;;;4.90;3.93;;;;;;;12.89;100.00;97315.56;5052320;28;20513;-73
2022/07/09 05:32:06;;;;;;;5.90;4.30;;;;;;;13.04;100.00;97317.69;5067852;28;20540;-73
2022/07/09 05:34:33;;;;;;;5.77;3.97;;;;;;;13.14;100.00;97313.94;5052782;28;20440;-73
2022/07/09 05:36:59;;;;;;;6.00;3.83;;;;;;;12.99;100.00;97317.88;5036205;28;21078;-72
2022/07/09 05:39:26;;;;;;;4.60;4.20;;;;;;;12.68;100.00;97300.28;5035574;28;20442;-72
2022/07/09 05:41:53;;;;;;;6.73;4.40;;;;;;;12.82;100.00;97324.03;5018242;28;20461;-74
2022/07/09 05:44:19;;;;;;;4.30;3.60;;;;;;;12.63;100.00;97320.91;5034602;28;20495;-72
2022/07/09 05:46:51;;;;;;;3.37;3.07;;;;;;;12.39;100.00;97300.97;5037246;28;20497;-73
2022/07/09 05:49:18;;;;;;;4.33;3.60;;;;;;;12.53;100.00;97329.19;5034697;28;20559;-72
2022/07/09 05:51:45;;;;;;;5.50;5.00;;;;;;;12.42;100.00;97326.88;5034137;28;20480;-72
2022/07/09 05:54:11;;;;;;;4.90;3.83;;;;;;;12.30;100.00;97300.22;5051323;28;20429;-73
2022/07/09 05:56:38;;;;;;;9.03;5.20;;;;;;;12.38;100.00;97299.41;5043041;28;20498;-72
2022/07/09 05:59:05;;;;;;;4.83;4.00;;;;;;;12.41;100.00;97304.06;5035675;28;21290;-72
2022/07/09 06:01:32;;;;;;;6.67;4.40;;;;;;;12.53;100.00;97282.22;5032344;28;20929;-72
2022/07/09 06:03:59;;;;;;;4.33;4.03;;;;;;;12.83;100.00;97311.53;5032485;28;20433;-73
2022/07/09 06:06:25;;;;;;;6.17;4.83;;;;;;;12.57;100.00;97275.22;5036058;28;20941;-72
2022/07/09 06:08:53;;;;;;;6.70;4.70;;;;;;;12.91;100.00;97300.88;5052662;28;20496;-73
2022/07/09 06:11:20;;;;;;;5.77;4.00;;;;;;;13.14;100.00;97308.63;5036078;28;20529;-73
2022/07/09 06:13:46;;;;;;;5.80;4.70;;;;;;;12.87;100.00;97264.66;5019471;28;21000;-73
2022/07/09 06:16:13;;;;;;;5.37;4.00;;;;;;;12.83;100.00;97290.28;5052577;28;20445;-72
2022/07/09 06:18:40;;;;;;;4.67;4.27;;;;;;;12.83;100.00;97311.53;5035687;28;20467;-73
2022/07/09 06:21:07;;;;;;;5.37;4.57;;;;;;;12.90;100.00;97312.59;5035387;28;20956;-72
2022/07/09 06:23:33;;;;;;;5.17;4.77;;;;;;;12.81;100.00;97295.13;5019277;28;20433;-73
2022/07/09 06:26:00;;;;;;;6.83;5.40;;;;;;;12.96;100.00;97308.69;5035734;28;20659;-73
2022/07/09 06:28:27;;;;;;;5.60;5.10;;;;;;;13.20;100.00;97307.34;5048651;28;21060;-73
2022/07/09 06:30:53;;;;;;;7.77;4.50;;;;;;;13.32;100.00;97307.47;5027839;28;20496;-73
2022/07/09 06:33:20;;;;;;;5.93;5.40;;;;;;;12.77;100.00;97202.09;5019190;28;20434;-73
2022/07/09 06:35:47;;;;;;;7.10;5.67;;;;;;;13.53;100.00;97279.09;5035529;28;20528;-73
2022/07/09 06:38:14;;;;;;;5.30;4.83;;;;;;;13.78;100.00;97285.34;5035473;28;21059;-73
2022/07/09 06:40:40;;;;;;;5.37;4.53;;;;;;;14.03;100.00;97301.44;5035620;28;20499;-73
2022/07/09 06:43:09;;;;;;;4.70;4.17;;;;;;;13.94;100.00;97290.88;5035766;28;20464;-72
2022/07/09 06:45:43;;;;;;;5.80;4.77;;;;;;;13.95;100.00;97315.56;5032728;28;20476;-73
2022/07/09 06:48:10;;;;;;;5.63;5.03;;;;;;;13.79;100.00;97292.22;5035486;28;21022;-72
2022/07/09 06:50:37;;;;;;;5.10;4.30;;;;;;;14.00;100.00;97315.38;5035290;28;20461;-72
2022/07/09 06:53:04;;;;;;;5.20;4.73;;;;;;;13.83;100.00;97295.00;5018768;28;20469;-72
2022/07/09 06:55:31;;;;;;;6.77;5.23;;;;;;;13.93;100.00;97313.25;5035306;28;20484;-73
2022/07/09 06:57:57;;;;;;;5.53;5.03;;;;;;;13.74;100.00;97295.06;5018954;28;20545;-73
2022/07/09 07:00:24;;;;;;;5.87;4.90;;;;;;;14.01;100.00;97315.06;5035295;28;20571;-73
2022/07/09 07:02:50;;;;;;;5.77;4.40;;;;;;;13.89;100.00;97291.06;5035318;28;20970;-73
2022/07/09 07:05:17;;;;;;;9.23;5.33;;;;;;;13.75;100.00;97283.31;5035140;28;20529;-72
2022/07/09 07:07:44;;;;;;;5.83;4.77;;;;;;;14.11;100.00;97317.34;5034977;28;20481;-73
2022/07/09 07:10:11;;;;;;;9.00;5.03;;;;;;;14.20;100.00;97291.44;5052945;28;20546;-73
2022/07/09 07:12:37;;;;;;;8.70;7.27;;;;;;;14.54;100.00;97305.56;5034955;28;20487;-73
2022/07/09 07:15:04;;;;;;;15.20;8.53;;;;;;;14.77;100.00;97280.16;5052675;28;20511;-73
2022/07/09 07:17:32;;;;;;;8.50;6.87;;;;;;;14.89;100.00;97289.28;5033863;28;20545;-73
2022/07/09 07:19:59;;;;;;;7.60;5.43;;;;;;;15.91;100.00;97313.09;5034808;28;20440;-73
2022/07/09 07:22:26;;;;;;;5.20;4.43;;;;;;;16.31;100.00;97320.34;5034865;28;20444;-72
2022/07/09 07:24:52;;;;;;;6.27;4.93;;;;;;;16.66;100.00;97306.38;5017999;28;20524;-72
2022/07/09 07:27:19;;;;;;;12.70;5.03;;;;;;;16.57;100.00;97305.78;5034400;28;21046;-72
2022/07/09 07:29:45;;;;;;;4.33;4.00;;;;;;;16.89;100.00;97312.75;5034249;28;20572;-72
2022/07/09 07:32:12;;;;;;;8.10;4.20;;;;;;;17.25;100.00;97303.75;5035486;28;20464;-72
2022/07/09 07:34:39;;;;;;;5.00;4.13;;;;;;;17.10;100.00;97275.91;5018886;28;20472;-72
2022/07/09 07:37:05;;;;;;;4.97;4.53;;;;;;;17.48;100.00;97290.50;5034466;28;20523;-72
2022/07/09 07:39:32;;;;;;;4.60;3.43;;;;;;;17.91;100.00;97302.22;5034279;28;20576;-72
2022/07/09 07:41:59;;;;;;;4.17;3.73;;;;;;;18.29;100.00;97302.22;5034489;28;20504;-72
2022/07/09 07:44:26;;;;;;;4.60;4.20;;;;;;;18.81;100.00;97318.94;5051997;28;20488;-72
2022/07/09 07:46:52;;;;;;;3.50;3.07;;;;;;;18.92;100.00;97298.47;5034248;28;20501;-72
2022/07/09 07:49:19;;;;;;;4.03;3.00;;;;;;;19.18;100.00;97284.34;5033951;28;20882;-72
2022/07/09 07:51:46;;;;;;;4.73;3.80;;;;;;;19.60;100.00;97310.31;5034255;28;20442;-74
2022/07/09 07:54:12;;;;;;;8.80;3.10;;;;;;;19.03;100.00;97306.69;5050940;28;20433;-72
2022/07/09 07:56:39;;;;;;;4.00;3.17;;;;;;;18.74;100.00;97298.16;5034161;28;20956;-72
2022/07/09 07:59:06;;;;;;;3.40;3.10;;;;;;;18.31;100.00;97275.91;5017755;28;20484;-72
2022/07/09 08:01:33;;;;;;;2.80;2.60;;;;;;;18.68;100.00;97282.72;5033768;28;20866;-73
2022/07/09 08:04:00;;;;;;;6.20;3.10;;;;;;;18.49;100.00;97288.84;5035499;28;20945;-72
2022/07/09 08:06:27;;;;;;;3.77;3.27;;;;;;;18.67;100.00;97283.84;5034124;28;20941;-73
2022/07/09 08:09:00;;;;;;;8.20;3.47;;;;;;;18.99;100.00;97295.16;5052121;28;20520;-72
2022/07/09 08:11:27;;;;;;;2.57;2.37;;;;;;;19.94;100.00;97265.56;5052926;28;20488;-72
2022/07/09 08:13:54;;;;;;;2.83;2.40;;;;;;;19.73;100.00;97279.47;5017300;28;20537;-73
2022/07/09 08:16:21;;;;;;;3.50;2.70;;;;;;;19.60;100.00;97284.28;5019225;28;20857;-71
2022/07/09 08:18:47;;;;;;;3.90;2.37;;;;;;;19.66;100.00;97269.41;5033979;28;20442;-71
2022/07/09 08:21:15;;;;;;;3.33;2.57;;;;;;;19.90;100.00;97280.84;5051903;28;20558;-71
2022/07/09 08:23:54;;;;;;;3.50;2.17;;;;;;;19.64;100.00;97247.53;5034142;28;20499;-70
2022/07/09 08:26:22;;;;;;;3.20;2.37;;;;;;;19.82;100.00;97265.78;5031064;28;20442;-70
2022/07/09 08:28:49;;;;;;;3.43;2.70;;;;;;;19.46;100.00;97252.59;5050947;28;20950;-71
2022/07/09 08:31:17;;;;;;;5.00;2.20;;;;;;;19.32;100.00;97259.66;5034533;28;20457;-71
2022/07/09 08:33:44;;;;;;;3.30;2.50;;;;;;;19.47;100.00;97272.94;5042158;28;20439;-71
2022/07/09 08:36:11;;;;;;;3.67;3.30;;;;;;;19.54;100.00;97271.50;5041455;28;20475;-70
2022/07/09 08:38:38;;;;;;;4.20;2.33;;;;;;;19.58;100.00;97269.66;5061017;28;20422;-73
2022/07/09 08:41:05;;;;;;;3.23;2.37;;;;;;;19.24;100.00;97248.06;5033849;28;20430;-73
2022/07/09 08:43:34;;;;;;;2.80;2.20;;;;;;;18.99;100.00;97233.50;5051571;28;20867;-73
2022/07/09 08:46:01;;;;;;;4.50;2.67;;;;;;;18.75;100.00;97227.38;5062116;28;20864;-73
2022/07/09 08:48:33;;;;;;;2.37;1.70;;;;;;;18.86;100.00;97244.41;5042195;28;20457;-73
2022/07/09 08:51:04;;;;;;;3.00;1.97;;;;;;;18.84;100.00;97257.38;5047077;28;20471;-73
2022/07/09 08:53:31;;;;;;;5.63;2.30;;;;;;;18.90;100.00;97258.63;5050787;28;20433;-71
2022/07/09 08:55:58;;;;;;;1.87;1.70;;;;;;;18.74;100.00;97230.41;5034222;28;20421;-73
2022/07/09 08:58:25;;;;;;;2.00;1.80;;;;;;;19.17;100.00;97245.28;5033527;28;20457;-72
2022/07/09 09:00:53;;;;;;;2.30;1.87;;;;;;;19.64;100.00;97255.59;5050387;28;20507;-71
2022/07/09 09:03:20;;;;;;;2.07;1.97;;;;;;;19.83;100.00;97254.69;5036016;28;20465;-70
2022/07/09 09:06:11;;;;;;;4.50;2.30;;;;;;;19.90;100.00;97251.31;5034667;28;20469;-72
2022/07/09 09:08:41;;;;;;;1.90;1.80;;;;;;;19.85;100.00;97241.69;5052792;28;20824;-72
2022/07/09 09:11:22;;;;;;;1.80;1.70;;;;;;;19.79;100.00;97221.66;5049942;28;20453;-69
2022/07/09 09:13:50;;;;;;;2.90;2.13;;;;;;;19.67;100.00;97238.00;5051428;28;20971;-72
2022/07/09 09:16:18;;;;;;;3.00;1.60;;;;;;;19.45;100.00;97234.97;5032845;28;20487;-70
2022/07/09 09:18:48;;;;;;;2.63;1.70;;;;;;;19.29;100.00;97212.91;5050712;28;20475;-71
2022/07/09 09:21:18;;;;;;;2.27;2.07;;;;;;;19.47;100.00;97238.06;5018431;28;20556;-71
2022/07/09 09:23:47;;;;;;;3.57;2.03;;;;;;;18.72;100.00;97205.88;5032735;28;20445;-71
2022/07/09 09:26:25;;;;;;;2.63;2.20;;;;;;;18.44;100.00;97219.53;5032992;28;20524;-71
2022/07/09 09:28:53;;;;;;;1.50;1.40;;;;;;;18.68;100.00;97231.81;5032716;28;20445;-71
2022/07/09 09:31:28;;;;;;;3.70;1.87;;;;;;;18.81;100.00;97231.28;5061497;28;20465;-73
2022/07/09 09:33:57;;;;;;;4.50;2.00;;;;;;;19.17;100.00;97242.59;5051116;28;20433;-70
2022/07/09 09:36:32;;;;;;;2.90;1.93;;;;;;;18.99;100.00;97238.88;5034053;28;20963;-73
2022/07/09 09:39:07;;;;;;;1.63;1.53;;;;;;;18.86;100.00;97228.31;5032793;28;20449;-71
2022/07/09 09:41:34;;;;;;;2.60;2.03;;;;;;;18.83;100.00;97214.84;5037111;28;20992;-70
2022/07/09 09:44:24;;;;;;;1.90;1.80;;;;;;;18.60;100.00;97238.94;5036675;28;20433;-72
2022/07/09 09:46:51;;;;;;;2.80;1.87;;;;;;;18.41;100.00;97223.66;5036334;28;20511;-73
2022/07/09 09:49:18;;;;;;;2.67;1.60;;;;;;;18.64;100.00;97225.63;5036795;28;20421;-70
2022/07/09 09:51:56;;;;;;;4.93;2.00;;;;;;;18.78;100.00;97228.53;5054303;28;20487;-70
2022/07/09 09:54:23;;;;;;;1.50;1.40;;;;;;;19.07;100.00;97225.19;5036474;28;20444;-71
2022/07/09 09:56:50;;;;;;;2.77;1.80;;;;;;;19.90;100.00;97236.00;5054074;28;20448;-70
2022/07/09 09:59:17;;;;;;;1.77;1.67;;;;;;;19.98;100.00;97231.47;5036256;28;20932;-70
2022/07/09 10:01:45;;;;;;;5.27;2.43;;;;;;;19.86;100.00;97232.47;5036006;28;20487;-70
2022/07/09 10:04:14;;;;;;;2.57;1.80;;;;;;;20.04;100.00;97224.66;5053935;28;20429;-70
2022/07/09 10:06:43;;;;;;;5.03;1.73;;;;;;;19.44;100.00;97216.56;5056288;28;20539;-70
2022/07/09 10:09:12;;;;;;;5.83;1.83;;;;;;;19.01;100.00;97221.28;5064252;28;20425;-70
2022/07/09 10:11:43;;;;;;;2.50;2.30;;;;;;;18.69;100.00;97212.69;5032140;28;20471;-70
2022/07/09 10:14:28;;;;;;;2.53;1.53;;;;;;;19.08;100.00;97213.34;5036373;28;20901;-70
2022/07/09 10:16:55;;;;;;;2.23;1.80;;;;;;;18.94;100.00;97194.34;5056421;28;20461;-70
2022/07/09 10:19:29;;;;;;;2.60;1.70;;;;;;;19.28;100.00;97208.66;5049376;28;20444;-71
2022/07/09 10:21:58;;;;;;;2.23;1.87;;;;;;;19.41;100.00;97201.97;5019641;28;20503;-70
2022/07/09 10:24:29;;;;;;;3.40;1.90;;;;;;;19.77;100.00;97207.84;5053952;28;20433;-70
2022/07/09 10:27:12;;;;;;;13.17;2.10;;;;;;;19.75;100.00;97210.88;5069500;28;21030;-70
2022/07/09 10:29:57;;;;;;;5.83;1.90;;;;;;;19.45;100.00;97200.09;5053707;28;20476;-70
2022/07/09 10:32:31;;;;;;;5.33;2.03;;;;;;;18.93;100.00;97157.97;5019537;28;20811;-70
2022/07/09 10:35:03;;;;;;;1.60;1.50;;;;;;;19.16;100.00;97217.69;5077832;28;20780;-71
2022/07/09 10:37:34;;;;;;;4.40;2.00;;;;;;;19.10;100.00;97213.78;5039969;28;20468;-70
2022/07/09 10:40:16;;;;;;;2.97;1.90;;;;;;;19.01;100.00;97213.25;5046248;28;20460;-70
2022/07/09 10:42:56;;;;;;;2.43;1.60;;;;;;;18.96;100.00;97215.44;5036393;28;20421;-70
2022/07/09 10:45:25;;;;;;;2.40;1.93;;;;;;;18.50;100.00;97183.25;5052273;28;20433;-70
2022/07/09 10:47:56;;;;;;;1.93;1.80;;;;;;;18.72;100.00;97197.84;5054010;28;20453;-71
2022/07/09 10:50:25;;;;;;;3.30;2.40;;;;;;;18.27;100.00;97175.97;5035378;28;20485;-71
2022/07/09 10:52:52;;;;;;;10.50;2.17;;;;;;;18.41;100.00;97206.81;5035225;28;20572;-70
2022/07/09 10:55:20;;;;;;;3.10;2.00;;;;;;;18.35;100.00;97184.16;5046730;28;20431;-70
2022/07/09 10:57:47;;;;;;;2.40;2.20;;;;;;;18.37;100.00;97200.63;5036521;28;20441;-70
2022/07/09 11:00:20;;;;;;;2.07;1.80;;;;;;;18.27;100.00;97170.63;5053565;28;20456;-70
2022/07/09 11:02:57;;;;;;;4.13;2.07;;;;;;;18.56;100.00;97192.53;5053763;28;20433;-71
2022/07/09 11:05:27;;;;;;;1.93;1.63;;;;;;;18.71;100.00;97198.97;5035742;28;20461;-70
2022/07/09 11:07:58;;;;;;;3.43;1.80;;;;;;;18.38;100.00;97157.41;5032133;28;20521;-71
2022/07/09 11:10:26;;;;;;;1.90;1.80;;;;;;;19.02;100.00;97201.38;5048703;28;20445;-70
2022/07/09 11:12:55;;;;;;;2.10;1.90;;;;;;;18.95;100.00;97181.72;5052899;28;20430;-70
2022/07/09 11:15:22;;;;;;;2.10;1.90;;;;;;;18.57;100.00;97178.03;5034999;28;20948;-71
2022/07/09 11:18:05;;;;;;;4.03;1.97;;;;;;;18.65;100.00;97201.16;5034919;28;20460;-71
2022/07/09 11:20:39;;;;;;;1.83;1.73;;;;;;;18.44;100.00;97196.19;5034948;28;20524;-70
2022/07/09 11:23:08;;;;;;;3.23;2.17;;;;;;;18.43;100.00;97191.16;5034970;28;20436;-70
2022/07/09 11:25:35;;;;;;;2.27;1.80;;;;;;;18.21;100.00;97180.09;5034567;28;20421;-71
2022/07/09 11:28:01;;;;;;;4.80;1.73;;;;;;;17.77;100.00;97128.78;5034530;28;20469;-70